sensor_id;sensor_type;location;lat;lon;timestamp;P1;durP1;ratioP1;P2;durP2;ratioP2
35114;SDS011;21292;52.416;13.046;2023-04-06T00:00:19;10.75;;;5.15;;
35114;SDS011;21292;52.416;13.046;2023-04-06T00:02:48;10.25;;;5.63;;
35114;SDS011;21292;52.416;13.046;2023-04-06T00:05:16;9.43;;;5.18;;
35114;SDS011;21292;52.416;13.046;2023-04-06T00:07:44;9.48;;;4.85;;
35114;SDS011;21292;52.416;13.046;2023-04-06T00:10:12;16.50;;;5.03;;
35114;SDS011;21292;52.416;13.046;2023-04-06T00:12:45;10.13;;;4.53;;
35114;SDS011;21292;52.416;13.046;2023-04-06T00:15:15;10.88;;;4.88;;
35114;SDS011;21292;52.416;13.046;2023-04-06T00:17:45;10.30;;;5.35;;
35114;SDS011;21292;52.416;13.046;2023-04-06T00:20:13;6.18;;;4.22;;
35114;SDS011;21292;52.416;13.046;2023-04-06T00:22:42;9.10;;;5.10;;
35114;SDS011;21292;52.416;13.046;2023-04-06T00:25:11;9.02;;;4.40;;
35114;SDS011;21292;52.416;13.046;2023-04-06T00:27:40;6.20;;;3.85;;
35114;SDS011;21292;52.416;13.046;2023-04-06T00:30:09;8.02;;;4.68;;
35114;SDS011;21292;52.416;13.046;2023-04-06T00:32:37;8.23;;;4.65;;
35114;SDS011;21292;52.416;13.046;2023-04-06T00:35:09;11.25;;;4.70;;
35114;SDS011;21292;52.416;13.046;2023-04-06T00:37:37;7.72;;;4.95;;
35114;SDS011;21292;52.416;13.046;2023-04-06T00:42:40;6.95;;;4.30;;
35114;SDS011;21292;52.416;13.046;2023-04-06T00:45:09;7.07;;;4.32;;
35114;SDS011;21292;52.416;13.046;2023-04-06T00:47:39;11.52;;;5.43;;
35114;SDS011;21292;52.416;13.046;2023-04-06T00:50:12;8.43;;;5.53;;
35114;SDS011;21292;52.416;13.046;2023-04-06T00:52:40;7.47;;;4.50;;
35114;SDS011;21292;52.416;13.046;2023-04-06T00:55:08;8.35;;;4.32;;
35114;SDS011;21292;52.416;13.046;2023-04-06T00:57:37;7.85;;;4.93;;
35114;SDS011;21292;52.416;13.046;2023-04-06T01:00:06;10.45;;;4.53;;
35114;SDS011;21292;52.416;13.046;2023-04-06T01:02:35;10.18;;;5.28;;
35114;SDS011;21292;52.416;13.046;2023-04-06T01:05:09;11.43;;;5.03;;
35114;SDS011;21292;52.416;13.046;2023-04-06T01:07:38;9.73;;;4.60;;
35114;SDS011;21292;52.416;13.046;2023-04-06T01:10:08;7.80;;;4.78;;
35114;SDS011;21292;52.416;13.046;2023-04-06T01:12:37;8.75;;;4.35;;
35114;SDS011;21292;52.416;13.046;2023-04-06T01:15:06;6.45;;;3.95;;
35114;SDS011;21292;52.416;13.046;2023-04-06T01:17:37;8.43;;;5.13;;
35114;SDS011;21292;52.416;13.046;2023-04-06T01:20:06;7.75;;;4.57;;
35114;SDS011;21292;52.416;13.046;2023-04-06T01:22:36;7.95;;;4.10;;
35114;SDS011;21292;52.416;13.046;2023-04-06T01:25:04;6.32;;;4.40;;
35114;SDS011;21292;52.416;13.046;2023-04-06T01:27:34;9.98;;;4.75;;
35114;SDS011;21292;52.416;13.046;2023-04-06T01:30:04;7.10;;;5.05;;
35114;SDS011;21292;52.416;13.046;2023-04-06T01:32:33;7.93;;;5.43;;
35114;SDS011;21292;52.416;13.046;2023-04-06T01:35:01;11.90;;;5.18;;
35114;SDS011;21292;52.416;13.046;2023-04-06T01:37:31;11.10;;;4.53;;
35114;SDS011;21292;52.416;13.046;2023-04-06T01:40:04;9.13;;;4.88;;
35114;SDS011;21292;52.416;13.046;2023-04-06T01:42:35;7.07;;;4.40;;
35114;SDS011;21292;52.416;13.046;2023-04-06T01:45:05;7.07;;;4.50;;
35114;SDS011;21292;52.416;13.046;2023-04-06T01:47:34;9.13;;;5.72;;
35114;SDS011;21292;52.416;13.046;2023-04-06T01:50:04;8.68;;;4.30;;
35114;SDS011;21292;52.416;13.046;2023-04-06T01:52:34;12.88;;;4.97;;
35114;SDS011;21292;52.416;13.046;2023-04-06T01:55:04;8.30;;;5.13;;
35114;SDS011;21292;52.416;13.046;2023-04-06T01:57:33;10.45;;;5.13;;
35114;SDS011;21292;52.416;13.046;2023-04-06T02:00:05;9.80;;;4.97;;
35114;SDS011;21292;52.416;13.046;2023-04-06T02:02:34;10.50;;;5.25;;
35114;SDS011;21292;52.416;13.046;2023-04-06T02:07:34;9.45;;;5.43;;
35114;SDS011;21292;52.416;13.046;2023-04-06T02:10:04;9.30;;;5.10;;
35114;SDS011;21292;52.416;13.046;2023-04-06T02:12:40;8.50;;;5.82;;
35114;SDS011;21292;52.416;13.046;2023-04-06T02:15:08;10.40;;;5.68;;
35114;SDS011;21292;52.416;13.046;2023-04-06T02:17:40;8.93;;;5.13;;
35114;SDS011;21292;52.416;13.046;2023-04-06T02:20:09;7.38;;;5.32;;
35114;SDS011;21292;52.416;13.046;2023-04-06T02:22:39;13.40;;;6.20;;
35114;SDS011;21292;52.416;13.046;2023-04-06T02:25:09;9.63;;;5.85;;
35114;SDS011;21292;52.416;13.046;2023-04-06T02:27:37;10.93;;;5.07;;
35114;SDS011;21292;52.416;13.046;2023-04-06T02:30:08;11.48;;;5.20;;
35114;SDS011;21292;52.416;13.046;2023-04-06T02:32:38;9.15;;;5.15;;
35114;SDS011;21292;52.416;13.046;2023-04-06T02:35:07;9.02;;;5.45;;
35114;SDS011;21292;52.416;13.046;2023-04-06T02:37:43;11.05;;;6.20;;
35114;SDS011;21292;52.416;13.046;2023-04-06T02:40:14;7.90;;;5.45;;
35114;SDS011;21292;52.416;13.046;2023-04-06T02:42:42;10.63;;;5.47;;
35114;SDS011;21292;52.416;13.046;2023-04-06T02:45:13;9.15;;;5.97;;
35114;SDS011;21292;52.416;13.046;2023-04-06T02:47:41;9.13;;;6.28;;
35114;SDS011;21292;52.416;13.046;2023-04-06T02:50:09;11.48;;;5.93;;
35114;SDS011;21292;52.416;13.046;2023-04-06T02:52:39;9.07;;;6.00;;
35114;SDS011;21292;52.416;13.046;2023-04-06T02:55:07;9.73;;;6.03;;
35114;SDS011;21292;52.416;13.046;2023-04-06T02:57:37;10.32;;;6.68;;
35114;SDS011;21292;52.416;13.046;2023-04-06T03:00:07;22.60;;;6.28;;
35114;SDS011;21292;52.416;13.046;2023-04-06T03:02:36;11.02;;;5.93;;
35114;SDS011;21292;52.416;13.046;2023-04-06T03:05:05;10.02;;;6.57;;
35114;SDS011;21292;52.416;13.046;2023-04-06T03:07:33;12.98;;;6.88;;
35114;SDS011;21292;52.416;13.046;2023-04-06T03:10:01;11.90;;;6.97;;
35114;SDS011;21292;52.416;13.046;2023-04-06T03:12:30;10.63;;;7.00;;
35114;SDS011;21292;52.416;13.046;2023-04-06T03:15:00;11.98;;;6.65;;
35114;SDS011;21292;52.416;13.046;2023-04-06T03:17:28;14.25;;;6.40;;
35114;SDS011;21292;52.416;13.046;2023-04-06T03:19:58;13.48;;;6.55;;
35114;SDS011;21292;52.416;13.046;2023-04-06T03:22:30;13.02;;;6.82;;
35114;SDS011;21292;52.416;13.046;2023-04-06T03:25:03;13.30;;;6.88;;
35114;SDS011;21292;52.416;13.046;2023-04-06T03:27:32;12.07;;;8.27;;
35114;SDS011;21292;52.416;13.046;2023-04-06T03:30:04;12.77;;;6.75;;
35114;SDS011;21292;52.416;13.046;2023-04-06T03:32:34;12.20;;;7.18;;
35114;SDS011;21292;52.416;13.046;2023-04-06T03:35:04;12.90;;;7.65;;
35114;SDS011;21292;52.416;13.046;2023-04-06T03:37:32;10.90;;;8.15;;
35114;SDS011;21292;52.416;13.046;2023-04-06T03:40:01;16.35;;;8.75;;
35114;SDS011;21292;52.416;13.046;2023-04-06T03:42:29;12.25;;;7.80;;
35114;SDS011;21292;52.416;13.046;2023-04-06T03:44:59;12.43;;;8.00;;
35114;SDS011;21292;52.416;13.046;2023-04-06T03:47:28;13.82;;;9.00;;
35114;SDS011;21292;52.416;13.046;2023-04-06T03:49:57;19.05;;;9.10;;
35114;SDS011;21292;52.416;13.046;2023-04-06T03:52:25;17.15;;;9.15;;
35114;SDS011;21292;52.416;13.046;2023-04-06T03:54:53;14.98;;;8.60;;
35114;SDS011;21292;52.416;13.046;2023-04-06T03:57:24;17.33;;;8.32;;
35114;SDS011;21292;52.416;13.046;2023-04-06T03:59:52;17.13;;;8.77;;
35114;SDS011;21292;52.416;13.046;2023-04-06T04:02:20;17.17;;;9.52;;
35114;SDS011;21292;52.416;13.046;2023-04-06T04:04:53;16.07;;;9.23;;
35114;SDS011;21292;52.416;13.046;2023-04-06T04:07:22;17.17;;;9.48;;
35114;SDS011;21292;52.416;13.046;2023-04-06T04:09:52;15.70;;;9.27;;
35114;SDS011;21292;52.416;13.046;2023-04-06T04:12:20;20.02;;;9.00;;
35114;SDS011;21292;52.416;13.046;2023-04-06T04:14:48;14.23;;;9.50;;
35114;SDS011;21292;52.416;13.046;2023-04-06T04:17:17;17.50;;;9.48;;
35114;SDS011;21292;52.416;13.046;2023-04-06T04:19:45;14.32;;;8.77;;
35114;SDS011;21292;52.416;13.046;2023-04-06T04:22:15;17.17;;;9.45;;
35114;SDS011;21292;52.416;13.046;2023-04-06T04:24:43;15.07;;;9.75;;
35114;SDS011;21292;52.416;13.046;2023-04-06T04:27:11;15.05;;;9.73;;
35114;SDS011;21292;52.416;13.046;2023-04-06T04:29:41;22.92;;;10.15;;
35114;SDS011;21292;52.416;13.046;2023-04-06T04:32:20;18.45;;;9.23;;
35114;SDS011;21292;52.416;13.046;2023-04-06T04:34:48;18.08;;;9.50;;
35114;SDS011;21292;52.416;13.046;2023-04-06T04:37:19;16.60;;;10.07;;
35114;SDS011;21292;52.416;13.046;2023-04-06T04:39:47;15.93;;;10.25;;
35114;SDS011;21292;52.416;13.046;2023-04-06T04:42:15;15.63;;;9.48;;
35114;SDS011;21292;52.416;13.046;2023-04-06T04:44:44;13.88;;;10.13;;
35114;SDS011;21292;52.416;13.046;2023-04-06T04:47:13;16.02;;;9.50;;
35114;SDS011;21292;52.416;13.046;2023-04-06T04:49:41;18.38;;;10.57;;
35114;SDS011;21292;52.416;13.046;2023-04-06T04:52:10;17.60;;;10.68;;
35114;SDS011;21292;52.416;13.046;2023-04-06T04:54:42;21.27;;;12.07;;
35114;SDS011;21292;52.416;13.046;2023-04-06T04:57:10;28.00;;;11.27;;
35114;SDS011;21292;52.416;13.046;2023-04-06T04:59:38;17.92;;;10.50;;
35114;SDS011;21292;52.416;13.046;2023-04-06T05:02:08;19.25;;;10.70;;
35114;SDS011;21292;52.416;13.046;2023-04-06T05:04:36;25.23;;;10.27;;
35114;SDS011;21292;52.416;13.046;2023-04-06T05:07:04;17.33;;;9.70;;
35114;SDS011;21292;52.416;13.046;2023-04-06T05:09:33;18.80;;;9.75;;
35114;SDS011;21292;52.416;13.046;2023-04-06T05:12:02;22.27;;;10.15;;
35114;SDS011;21292;52.416;13.046;2023-04-06T05:14:31;15.45;;;8.55;;
35114;SDS011;21292;52.416;13.046;2023-04-06T05:16:59;18.98;;;10.35;;
35114;SDS011;21292;52.416;13.046;2023-04-06T05:19:27;16.60;;;9.15;;
35114;SDS011;21292;52.416;13.046;2023-04-06T05:21:55;21.05;;;9.23;;
35114;SDS011;21292;52.416;13.046;2023-04-06T05:24:24;16.55;;;8.18;;
35114;SDS011;21292;52.416;13.046;2023-04-06T05:26:52;15.57;;;9.52;;
35114;SDS011;21292;52.416;13.046;2023-04-06T05:29:24;18.58;;;8.68;;
35114;SDS011;21292;52.416;13.046;2023-04-06T05:31:52;17.00;;;9.43;;
35114;SDS011;21292;52.416;13.046;2023-04-06T05:34:20;21.27;;;8.82;;
35114;SDS011;21292;52.416;13.046;2023-04-06T05:36:48;17.90;;;8.13;;
35114;SDS011;21292;52.416;13.046;2023-04-06T05:39:17;13.77;;;8.00;;
35114;SDS011;21292;52.416;13.046;2023-04-06T05:41:48;14.18;;;7.65;;
35114;SDS011;21292;52.416;13.046;2023-04-06T05:44:16;15.85;;;7.60;;
35114;SDS011;21292;52.416;13.046;2023-04-06T05:46:46;12.05;;;7.45;;
35114;SDS011;21292;52.416;13.046;2023-04-06T05:49:14;15.75;;;7.85;;
35114;SDS011;21292;52.416;13.046;2023-04-06T05:51:43;12.75;;;6.78;;
35114;SDS011;21292;52.416;13.046;2023-04-06T05:54:11;10.30;;;6.75;;
35114;SDS011;21292;52.416;13.046;2023-04-06T05:56:41;10.55;;;6.28;;
35114;SDS011;21292;52.416;13.046;2023-04-06T05:59:10;14.38;;;7.00;;
35114;SDS011;21292;52.416;13.046;2023-04-06T06:01:38;13.10;;;6.10;;
35114;SDS011;21292;52.416;13.046;2023-04-06T06:04:08;11.00;;;6.68;;
35114;SDS011;21292;52.416;13.046;2023-04-06T06:06:37;14.65;;;6.60;;
35114;SDS011;21292;52.416;13.046;2023-04-06T06:09:05;12.32;;;6.60;;
35114;SDS011;21292;52.416;13.046;2023-04-06T06:11:34;14.10;;;6.22;;
35114;SDS011;21292;52.416;13.046;2023-04-06T06:14:02;13.27;;;6.13;;
35114;SDS011;21292;52.416;13.046;2023-04-06T06:16:30;10.85;;;6.05;;
35114;SDS011;21292;52.416;13.046;2023-04-06T06:18:58;15.05;;;6.75;;
35114;SDS011;21292;52.416;13.046;2023-04-06T06:21:28;13.43;;;7.25;;
35114;SDS011;21292;52.416;13.046;2023-04-06T06:23:57;13.02;;;6.13;;
35114;SDS011;21292;52.416;13.046;2023-04-06T06:26:25;14.77;;;6.43;;
35114;SDS011;21292;52.416;13.046;2023-04-06T06:28:53;11.90;;;6.15;;
35114;SDS011;21292;52.416;13.046;2023-04-06T06:31:21;9.57;;;6.63;;
35114;SDS011;21292;52.416;13.046;2023-04-06T06:33:52;10.20;;;6.55;;
35114;SDS011;21292;52.416;13.046;2023-04-06T06:36:20;12.27;;;6.13;;
35114;SDS011;21292;52.416;13.046;2023-04-06T06:38:49;12.13;;;6.55;;
35114;SDS011;21292;52.416;13.046;2023-04-06T06:41:18;10.98;;;6.40;;
35114;SDS011;21292;52.416;13.046;2023-04-06T06:43:46;12.32;;;6.38;;
35114;SDS011;21292;52.416;13.046;2023-04-06T06:46:14;13.80;;;6.72;;
35114;SDS011;21292;52.416;13.046;2023-04-06T06:48:43;7.32;;;5.90;;
35114;SDS011;21292;52.416;13.046;2023-04-06T06:51:11;8.60;;;6.05;;
35114;SDS011;21292;52.416;13.046;2023-04-06T06:53:39;10.48;;;6.15;;
35114;SDS011;21292;52.416;13.046;2023-04-06T06:56:08;10.55;;;5.82;;
35114;SDS011;21292;52.416;13.046;2023-04-06T06:58:37;10.77;;;5.88;;
35114;SDS011;21292;52.416;13.046;2023-04-06T07:01:05;14.15;;;6.70;;
35114;SDS011;21292;52.416;13.046;2023-04-06T07:03:38;12.57;;;6.03;;
35114;SDS011;21292;52.416;13.046;2023-04-06T07:06:06;12.63;;;5.82;;
35114;SDS011;21292;52.416;13.046;2023-04-06T07:08:34;12.32;;;6.15;;
35114;SDS011;21292;52.416;13.046;2023-04-06T07:11:02;10.82;;;6.43;;
35114;SDS011;21292;52.416;13.046;2023-04-06T07:13:33;9.07;;;6.05;;
35114;SDS011;21292;52.416;13.046;2023-04-06T07:16:03;12.20;;;5.63;;
35114;SDS011;21292;52.416;13.046;2023-04-06T07:18:32;11.90;;;5.45;;
35114;SDS011;21292;52.416;13.046;2023-04-06T07:21:03;10.60;;;5.63;;
35114;SDS011;21292;52.416;13.046;2023-04-06T07:23:32;7.32;;;4.97;;
35114;SDS011;21292;52.416;13.046;2023-04-06T07:26:01;9.02;;;4.80;;
35114;SDS011;21292;52.416;13.046;2023-04-06T07:28:29;8.63;;;5.40;;
35114;SDS011;21292;52.416;13.046;2023-04-06T07:30:58;8.95;;;4.82;;
35114;SDS011;21292;52.416;13.046;2023-04-06T07:33:28;9.50;;;4.80;;
35114;SDS011;21292;52.416;13.046;2023-04-06T07:35:56;12.50;;;5.68;;
35114;SDS011;21292;52.416;13.046;2023-04-06T07:38:26;11.23;;;5.78;;
35114;SDS011;21292;52.416;13.046;2023-04-06T07:40:56;9.27;;;5.60;;
35114;SDS011;21292;52.416;13.046;2023-04-06T07:43:25;8.85;;;5.55;;
35114;SDS011;21292;52.416;13.046;2023-04-06T07:45:53;9.07;;;5.60;;
35114;SDS011;21292;52.416;13.046;2023-04-06T07:48:23;8.23;;;5.43;;
35114;SDS011;21292;52.416;13.046;2023-04-06T07:50:51;8.02;;;5.30;;
35114;SDS011;21292;52.416;13.046;2023-04-06T07:53:19;7.53;;;5.68;;
35114;SDS011;21292;52.416;13.046;2023-04-06T07:55:48;11.55;;;5.20;;
35114;SDS011;21292;52.416;13.046;2023-04-06T07:58:16;10.25;;;5.53;;
35114;SDS011;21292;52.416;13.046;2023-04-06T08:00:49;9.15;;;5.32;;
35114;SDS011;21292;52.416;13.046;2023-04-06T08:03:18;9.93;;;5.13;;
35114;SDS011;21292;52.416;13.046;2023-04-06T08:05:54;7.93;;;4.90;;
35114;SDS011;21292;52.416;13.046;2023-04-06T08:08:22;8.40;;;4.95;;
35114;SDS011;21292;52.416;13.046;2023-04-06T08:10:51;10.30;;;4.90;;
35114;SDS011;21292;52.416;13.046;2023-04-06T08:13:19;9.35;;;4.90;;
35114;SDS011;21292;52.416;13.046;2023-04-06T08:15:47;11.38;;;5.05;;
35114;SDS011;21292;52.416;13.046;2023-04-06T08:18:16;8.63;;;4.57;;
35114;SDS011;21292;52.416;13.046;2023-04-06T08:20:44;9.82;;;4.82;;
35114;SDS011;21292;52.416;13.046;2023-04-06T08:23:13;7.45;;;4.50;;
35114;SDS011;21292;52.416;13.046;2023-04-06T08:25:45;6.55;;;4.57;;
35114;SDS011;21292;52.416;13.046;2023-04-06T08:28:13;13.73;;;5.25;;
35114;SDS011;21292;52.416;13.046;2023-04-06T08:30:41;9.32;;;4.82;;
35114;SDS011;21292;52.416;13.046;2023-04-06T08:33:09;4.93;;;3.30;;
35114;SDS011;21292;52.416;13.046;2023-04-06T08:35:38;6.47;;;4.22;;
35114;SDS011;21292;52.416;13.046;2023-04-06T08:38:07;6.32;;;3.63;;
35114;SDS011;21292;52.416;13.046;2023-04-06T08:40:37;5.25;;;3.20;;
35114;SDS011;21292;52.416;13.046;2023-04-06T08:43:06;4.28;;;3.15;;
35114;SDS011;21292;52.416;13.046;2023-04-06T08:45:36;4.40;;;3.63;;
35114;SDS011;21292;52.416;13.046;2023-04-06T08:48:06;3.30;;;2.42;;
35114;SDS011;21292;52.416;13.046;2023-04-06T08:50:35;5.22;;;3.58;;
35114;SDS011;21292;52.416;13.046;2023-04-06T08:53:03;6.60;;;3.10;;
35114;SDS011;21292;52.416;13.046;2023-04-06T08:55:35;6.70;;;3.53;;
35114;SDS011;21292;52.416;13.046;2023-04-06T08:58:06;6.90;;;3.27;;
35114;SDS011;21292;52.416;13.046;2023-04-06T09:00:36;6.90;;;3.20;;
35114;SDS011;21292;52.416;13.046;2023-04-06T09:03:05;6.13;;;2.90;;
35114;SDS011;21292;52.416;13.046;2023-04-06T09:05:35;5.55;;;2.70;;
35114;SDS011;21292;52.416;13.046;2023-04-06T09:08:04;5.07;;;2.88;;
35114;SDS011;21292;52.416;13.046;2023-04-06T09:10:32;5.40;;;3.15;;
35114;SDS011;21292;52.416;13.046;2023-04-06T09:13:05;4.50;;;2.63;;
35114;SDS011;21292;52.416;13.046;2023-04-06T09:15:34;7.57;;;2.90;;
35114;SDS011;21292;52.416;13.046;2023-04-06T09:18:03;3.58;;;2.78;;
35114;SDS011;21292;52.416;13.046;2023-04-06T09:20:31;4.68;;;2.47;;
35114;SDS011;21292;52.416;13.046;2023-04-06T09:23:00;2.63;;;2.25;;
35114;SDS011;21292;52.416;13.046;2023-04-06T09:25:28;4.22;;;2.85;;
35114;SDS011;21292;52.416;13.046;2023-04-06T09:27:58;3.75;;;2.45;;
35114;SDS011;21292;52.416;13.046;2023-04-06T09:30:28;4.68;;;2.70;;
35114;SDS011;21292;52.416;13.046;2023-04-06T09:32:57;6.07;;;2.67;;
35114;SDS011;21292;52.416;13.046;2023-04-06T09:35:26;4.35;;;2.75;;
35114;SDS011;21292;52.416;13.046;2023-04-06T09:37:56;3.35;;;2.50;;
35114;SDS011;21292;52.416;13.046;2023-04-06T09:40:25;4.50;;;3.13;;
35114;SDS011;21292;52.416;13.046;2023-04-06T09:42:53;4.50;;;2.92;;
35114;SDS011;21292;52.416;13.046;2023-04-06T09:45:24;5.70;;;4.03;;
35114;SDS011;21292;52.416;13.046;2023-04-06T09:47:54;5.85;;;4.13;;
35114;SDS011;21292;52.416;13.046;2023-04-06T09:50:23;4.32;;;3.42;;
35114;SDS011;21292;52.416;13.046;2023-04-06T09:52:53;6.75;;;3.85;;
35114;SDS011;21292;52.416;13.046;2023-04-06T09:55:23;5.22;;;3.55;;
35114;SDS011;21292;52.416;13.046;2023-04-06T09:57:55;5.90;;;3.72;;
35114;SDS011;21292;52.416;13.046;2023-04-06T10:02:58;8.00;;;4.20;;
35114;SDS011;21292;52.416;13.046;2023-04-06T10:05:29;5.25;;;3.80;;
35114;SDS011;21292;52.416;13.046;2023-04-06T10:08:01;5.07;;;3.28;;
35114;SDS011;21292;52.416;13.046;2023-04-06T10:10:32;6.03;;;3.92;;
35114;SDS011;21292;52.416;13.046;2023-04-06T10:13:00;4.03;;;3.35;;
35114;SDS011;21292;52.416;13.046;2023-04-06T10:15:30;3.97;;;2.88;;
35114;SDS011;21292;52.416;13.046;2023-04-06T10:18:00;5.13;;;3.35;;
35114;SDS011;21292;52.416;13.046;2023-04-06T10:20:29;3.40;;;3.10;;
35114;SDS011;21292;52.416;13.046;2023-04-06T10:23:01;6.60;;;3.58;;
35114;SDS011;21292;52.416;13.046;2023-04-06T10:25:51;4.10;;;3.30;;
35114;SDS011;21292;52.416;13.046;2023-04-06T10:28:20;7.47;;;3.65;;
35114;SDS011;21292;52.416;13.046;2023-04-06T10:30:48;4.70;;;3.33;;
35114;SDS011;21292;52.416;13.046;2023-04-06T10:33:19;4.82;;;3.50;;
35114;SDS011;21292;52.416;13.046;2023-04-06T10:35:48;4.55;;;3.47;;
35114;SDS011;21292;52.416;13.046;2023-04-06T10:38:16;7.43;;;3.58;;
35114;SDS011;21292;52.416;13.046;2023-04-06T10:43:18;9.00;;;3.25;;
35114;SDS011;21292;52.416;13.046;2023-04-06T10:45:54;5.85;;;3.20;;
35114;SDS011;21292;52.416;13.046;2023-04-06T10:48:25;4.63;;;3.60;;
35114;SDS011;21292;52.416;13.046;2023-04-06T10:51:07;4.55;;;2.97;;
35114;SDS011;21292;52.416;13.046;2023-04-06T10:53:35;4.03;;;3.17;;
35114;SDS011;21292;52.416;13.046;2023-04-06T10:56:04;4.22;;;3.45;;
35114;SDS011;21292;52.416;13.046;2023-04-06T10:58:43;4.32;;;3.20;;
35114;SDS011;21292;52.416;13.046;2023-04-06T11:01:14;6.90;;;3.72;;
35114;SDS011;21292;52.416;13.046;2023-04-06T11:03:45;6.65;;;3.42;;
35114;SDS011;21292;52.416;13.046;2023-04-06T11:06:18;5.07;;;3.60;;
35114;SDS011;21292;52.416;13.046;2023-04-06T11:08:48;3.67;;;3.35;;
35114;SDS011;21292;52.416;13.046;2023-04-06T11:11:18;5.68;;;3.65;;
35114;SDS011;21292;52.416;13.046;2023-04-06T11:13:49;4.05;;;3.22;;
35114;SDS011;21292;52.416;13.046;2023-04-06T11:16:20;4.32;;;3.38;;
35114;SDS011;21292;52.416;13.046;2023-04-06T11:18:51;3.22;;;2.92;;
35114;SDS011;21292;52.416;13.046;2023-04-06T11:21:32;5.63;;;3.35;;
35114;SDS011;21292;52.416;13.046;2023-04-06T11:24:06;5.30;;;3.70;;
35114;SDS011;21292;52.416;13.046;2023-04-06T11:26:38;4.45;;;2.88;;
35114;SDS011;21292;52.416;13.046;2023-04-06T11:29:09;4.07;;;3.20;;
35114;SDS011;21292;52.416;13.046;2023-04-06T11:31:38;4.53;;;3.45;;
35114;SDS011;21292;52.416;13.046;2023-04-06T11:34:12;6.32;;;3.55;;
35114;SDS011;21292;52.416;13.046;2023-04-06T11:36:42;6.78;;;3.50;;
35114;SDS011;21292;52.416;13.046;2023-04-06T11:39:11;5.88;;;3.40;;
35114;SDS011;21292;52.416;13.046;2023-04-06T11:41:41;5.68;;;3.90;;
35114;SDS011;21292;52.416;13.046;2023-04-06T11:44:10;8.55;;;3.78;;
35114;SDS011;21292;52.416;13.046;2023-04-06T11:46:38;6.32;;;3.55;;
35114;SDS011;21292;52.416;13.046;2023-04-06T11:49:06;6.68;;;3.70;;
35114;SDS011;21292;52.416;13.046;2023-04-06T11:51:36;8.77;;;3.92;;
35114;SDS011;21292;52.416;13.046;2023-04-06T11:54:04;4.18;;;3.75;;
35114;SDS011;21292;52.416;13.046;2023-04-06T11:56:33;8.73;;;4.25;;
35114;SDS011;21292;52.416;13.046;2023-04-06T11:59:01;4.43;;;3.60;;
35114;SDS011;21292;52.416;13.046;2023-04-06T12:01:29;3.60;;;3.13;;
35114;SDS011;21292;52.416;13.046;2023-04-06T12:04:04;6.88;;;3.78;;
35114;SDS011;21292;52.416;13.046;2023-04-06T12:06:33;4.65;;;3.45;;
35114;SDS011;21292;52.416;13.046;2023-04-06T12:09:04;3.72;;;3.28;;
35114;SDS011;21292;52.416;13.046;2023-04-06T12:11:32;6.88;;;3.45;;
35114;SDS011;21292;52.416;13.046;2023-04-06T12:14:00;5.43;;;3.75;;
35114;SDS011;21292;52.416;13.046;2023-04-06T12:16:31;5.32;;;3.60;;
35114;SDS011;21292;52.416;13.046;2023-04-06T12:19:00;7.90;;;3.30;;
35114;SDS011;21292;52.416;13.046;2023-04-06T12:21:29;4.15;;;3.60;;
35114;SDS011;21292;52.416;13.046;2023-04-06T12:23:59;6.22;;;3.60;;
35114;SDS011;21292;52.416;13.046;2023-04-06T12:26:29;5.82;;;4.05;;
35114;SDS011;21292;52.416;13.046;2023-04-06T12:28:58;4.47;;;3.70;;
35114;SDS011;21292;52.416;13.046;2023-04-06T12:31:32;6.40;;;4.07;;
35114;SDS011;21292;52.416;13.046;2023-04-06T12:34:06;7.03;;;4.18;;
35114;SDS011;21292;52.416;13.046;2023-04-06T12:36:34;6.80;;;4.10;;
35114;SDS011;21292;52.416;13.046;2023-04-06T12:39:05;7.20;;;3.83;;
35114;SDS011;21292;52.416;13.046;2023-04-06T12:41:34;5.07;;;3.85;;
35114;SDS011;21292;52.416;13.046;2023-04-06T12:44:03;5.28;;;4.38;;
35114;SDS011;21292;52.416;13.046;2023-04-06T12:46:31;6.45;;;3.35;;
35114;SDS011;21292;52.416;13.046;2023-04-06T12:48:59;6.07;;;3.78;;
35114;SDS011;21292;52.416;13.046;2023-04-06T12:51:27;5.00;;;3.28;;
35114;SDS011;21292;52.416;13.046;2023-04-06T12:53:56;7.97;;;4.50;;
35114;SDS011;21292;52.416;13.046;2023-04-06T12:56:24;6.18;;;4.38;;
35114;SDS011;21292;52.416;13.046;2023-04-06T12:58:54;7.95;;;5.50;;
35114;SDS011;21292;52.416;13.046;2023-04-06T13:01:23;5.75;;;4.65;;
35114;SDS011;21292;52.416;13.046;2023-04-06T13:03:53;7.13;;;4.30;;
35114;SDS011;21292;52.416;13.046;2023-04-06T13:06:21;7.45;;;3.90;;
35114;SDS011;21292;52.416;13.046;2023-04-06T13:08:49;6.57;;;4.45;;
35114;SDS011;21292;52.416;13.046;2023-04-06T13:11:18;5.97;;;3.70;;
35114;SDS011;21292;52.416;13.046;2023-04-06T13:13:47;5.38;;;4.10;;
35114;SDS011;21292;52.416;13.046;2023-04-06T13:16:17;4.93;;;3.88;;
35114;SDS011;21292;52.416;13.046;2023-04-06T13:18:45;5.32;;;3.78;;
35114;SDS011;21292;52.416;13.046;2023-04-06T13:21:14;8.18;;;4.80;;
35114;SDS011;21292;52.416;13.046;2023-04-06T13:23:43;7.13;;;4.00;;
35114;SDS011;21292;52.416;13.046;2023-04-06T13:26:11;5.32;;;3.72;;
35114;SDS011;21292;52.416;13.046;2023-04-06T13:28:44;5.80;;;3.63;;
35114;SDS011;21292;52.416;13.046;2023-04-06T13:31:12;7.70;;;4.32;;
35114;SDS011;21292;52.416;13.046;2023-04-06T13:33:42;10.55;;;4.30;;
35114;SDS011;21292;52.416;13.046;2023-04-06T13:36:10;6.35;;;4.57;;
35114;SDS011;21292;52.416;13.046;2023-04-06T13:38:45;8.68;;;4.07;;
35114;SDS011;21292;52.416;13.046;2023-04-06T13:41:18;8.60;;;4.32;;
35114;SDS011;21292;52.416;13.046;2023-04-06T13:43:47;5.13;;;4.10;;
35114;SDS011;21292;52.416;13.046;2023-04-06T13:46:16;6.82;;;4.10;;
35114;SDS011;21292;52.416;13.046;2023-04-06T13:48:46;7.18;;;4.57;;
35114;SDS011;21292;52.416;13.046;2023-04-06T13:51:15;6.97;;;4.05;;
35114;SDS011;21292;52.416;13.046;2023-04-06T13:53:44;8.07;;;4.53;;
35114;SDS011;21292;52.416;13.046;2023-04-06T13:56:12;6.20;;;4.32;;
35114;SDS011;21292;52.416;13.046;2023-04-06T13:58:41;5.97;;;4.10;;
35114;SDS011;21292;52.416;13.046;2023-04-06T14:01:09;6.07;;;3.80;;
35114;SDS011;21292;52.416;13.046;2023-04-06T14:03:38;5.38;;;3.58;;
35114;SDS011;21292;52.416;13.046;2023-04-06T14:06:11;6.63;;;3.92;;
35114;SDS011;21292;52.416;13.046;2023-04-06T14:08:42;5.60;;;4.10;;
35114;SDS011;21292;52.416;13.046;2023-04-06T14:11:10;7.53;;;4.60;;
35114;SDS011;21292;52.416;13.046;2023-04-06T14:13:39;5.85;;;5.07;;
35114;SDS011;21292;52.416;13.046;2023-04-06T14:16:08;9.43;;;5.03;;
35114;SDS011;21292;52.416;13.046;2023-04-06T14:18:39;6.45;;;4.70;;
35114;SDS011;21292;52.416;13.046;2023-04-06T14:21:10;6.65;;;5.03;;
35114;SDS011;21292;52.416;13.046;2023-04-06T14:23:38;7.82;;;5.40;;
35114;SDS011;21292;52.416;13.046;2023-04-06T14:26:07;6.38;;;4.53;;
35114;SDS011;21292;52.416;13.046;2023-04-06T14:28:35;6.93;;;4.65;;
35114;SDS011;21292;52.416;13.046;2023-04-06T14:31:09;5.63;;;4.20;;
35114;SDS011;21292;52.416;13.046;2023-04-06T14:33:39;8.73;;;5.03;;
35114;SDS011;21292;52.416;13.046;2023-04-06T14:36:07;5.07;;;4.30;;
35114;SDS011;21292;52.416;13.046;2023-04-06T14:38:38;7.63;;;4.47;;
35114;SDS011;21292;52.416;13.046;2023-04-06T14:41:07;6.22;;;4.07;;
35114;SDS011;21292;52.416;13.046;2023-04-06T14:43:37;8.60;;;4.55;;
35114;SDS011;21292;52.416;13.046;2023-04-06T14:46:06;6.82;;;4.70;;
35114;SDS011;21292;52.416;13.046;2023-04-06T14:48:38;5.82;;;4.60;;
35114;SDS011;21292;52.416;13.046;2023-04-06T14:51:07;7.30;;;4.65;;